Terminal Aerodrome Forecast
Issued by NWS Tampa Bay Area, FL

Home | Current Version | Previous Version | Text Only | Print | Product List | Glossary On
Versions: 1 2 3 4 5 6 7 8 9 10 11 12 13 14 15 16 17 18 19 20 21 22 23 24 25
503
FTUS42 KTBW 010536
TAFTPA
TAF
KTPA 010536Z 0106/0206 00000KT P6SM SCT070
     FM011400 24005KT P6SM SCT035 SCT250
     FM011800 27008KT P6SM VCTS SCT045CB SCT250
     FM012100 29007KT P6SM SCT050 SCT250
     FM020000 33006KT P6SM VCTS FEW040CB SCT250
     FM020200 04005KT P6SM FEW025 SCT250=

USA.gov is the U.S. government's official web portal to all federal, state and local government web resources and services.